Time;durP1;ratioP1;P1;durP2;ratioP2;P2;SDS_P1;SDS_P2;PMS_P1;PMS_P2;Temp;Humidity;BMP_temperature;BMP_pressure;BME280_temperature;BME280_humidity;BME280_pressure;Samples;Min_cycle;Max_cycle;Signal;HPM_P1;HPM_P2
2022/11/02 00:01:56;;;;;;;3.30;1.02;;;12.50;99.90;;;;;;5036465;28;20045;-79
2022/11/02 00:04:22;;;;;;;6.03;1.33;;;12.50;99.90;;;;;;5033297;28;20167;-78
2022/11/02 00:06:47;;;;;;;4.85;1.00;;;12.50;99.90;;;;;;5015568;28;20095;-78
2022/11/02 00:09:13;;;;;;;6.32;1.10;;;12.40;99.90;;;;;;5032331;28;20135;-78
2022/11/02 00:11:39;;;;;;;7.57;1.30;;;12.40;99.90;;;;;;5026030;28;20096;-78
2022/11/02 00:14:04;;;;;;;2.90;0.90;;;12.30;99.90;;;;;;4998202;28;20049;-78
2022/11/02 00:16:31;;;;;;;2.50;0.73;;;12.20;99.90;;;;;;5008328;28;20033;-78
2022/11/02 00:18:58;;;;;;;3.75;0.93;;;;;;;;;;5035398;28;20382;-77
2022/11/02 00:21:25;;;;;;;8.38;1.58;;;12.10;99.90;;;;;;5045931;28;20044;-79
2022/11/02 00:23:52;;;;;;;4.32;0.80;;;12.00;99.90;;;;;;5039918;28;20384;-79
2022/11/02 00:26:18;;;;;;;3.63;0.95;;;11.80;99.90;;;;;;5032014;28;20042;-79
2022/11/02 00:28:44;;;;;;;4.15;1.02;;;11.80;99.90;;;;;;5036291;28;20083;-79
2022/11/02 00:31:10;;;;;;;2.20;0.90;;;11.70;99.90;;;;;;4997591;28;20073;-80
2022/11/02 00:33:35;;;;;;;2.45;0.60;;;11.70;99.90;;;;;;5031832;28;20049;-80
2022/11/02 00:36:01;;;;;;;3.03;1.00;;;11.70;99.90;;;;;;5018793;28;20029;-80
2022/11/02 00:38:27;;;;;;;2.78;0.73;;;11.60;99.90;;;;;;5051475;28;20070;-78
2022/11/02 00:40:52;;;;;;;5.70;0.98;;;11.60;99.90;;;;;;5034870;28;20053;-78
2022/11/02 00:43:18;;;;;;;4.35;0.80;;;11.50;99.90;;;;;;5032802;28;20083;-78
2022/11/02 00:45:44;;;;;;;6.78;1.50;;;11.50;99.90;;;;;;5041999;28;20061;-78
2022/11/02 00:48:10;;;;;;;4.20;0.82;;;11.40;99.90;;;;;;5015257;28;20150;-78
2022/11/02 00:50:36;;;;;;;4.15;0.90;;;11.40;99.90;;;;;;5031526;28;20058;-78
2022/11/02 00:53:01;;;;;;;3.22;0.95;;;11.40;99.90;;;;;;5014225;28;20069;-78
2022/11/02 00:55:27;;;;;;;2.60;0.65;;;11.30;99.90;;;;;;5036626;28;20038;-82
2022/11/02 00:57:53;;;;;;;2.83;0.75;;;11.30;99.90;;;;;;5053396;28;20037;-82
2022/11/02 01:00:19;;;;;;;4.97;1.35;;;11.30;99.90;;;;;;5037117;28;20033;-82
2022/11/02 01:02:44;;;;;;;2.53;0.70;;;11.30;99.90;;;;;;5054958;28;20109;-82
2022/11/02 01:05:11;;;;;;;3.58;0.80;;;11.20;99.90;;;;;;5025535;28;20046;-82
2022/11/02 01:07:37;;;;;;;2.22;1.15;;;11.20;99.90;;;;;;5008888;28;20052;-82
2022/11/02 01:10:04;;;;;;;1.70;0.88;;;11.20;99.90;;;;;;5049502;28;20041;-83
2022/11/02 01:12:30;;;;;;;0.98;0.70;;;11.20;99.90;;;;;;5018545;28;20029;-82
2022/11/02 01:14:56;;;;;;;3.80;1.08;;;11.20;99.90;;;;;;5024607;28;20043;-82
2022/11/02 01:17:21;;;;;;;3.40;0.80;;;11.20;99.90;;;;;;5046688;28;20048;-83
2022/11/02 01:19:49;;;;;;;1.88;0.93;;;11.20;99.90;;;;;;5018697;28;20549;-82
2022/11/02 01:22:15;;;;;;;4.00;0.82;;;11.20;99.90;;;;;;5035237;28;20129;-82
2022/11/02 01:24:41;;;;;;;3.65;0.98;;;11.10;99.90;;;;;;5021163;28;20123;-82
2022/11/02 01:27:06;;;;;;;5.07;1.65;;;11.10;99.90;;;;;;5046681;28;20044;-80
2022/11/02 01:29:32;;;;;;;4.53;1.00;;;11.00;99.90;;;;;;5053947;28;20037;-80
2022/11/02 01:31:58;;;;;;;3.45;0.77;;;11.00;99.90;;;;;;5037678;28;20037;-80
2022/11/02 01:34:23;;;;;;;3.70;0.75;;;11.00;99.90;;;;;;5036574;28;20483;-79
2022/11/02 01:36:49;;;;;;;1.20;0.60;;;11.00;99.90;;;;;;5032311;28;20125;-79
2022/11/02 01:39:15;;;;;;;2.70;0.45;;;11.10;99.90;;;;;;5015462;28;20425;-79
2022/11/02 01:41:41;;;;;;;3.72;0.93;;;11.20;99.90;;;;;;5054118;28;20083;-79
2022/11/02 01:44:32;;;;;;;2.38;0.90;;;11.20;99.90;;;;;;5025427;28;20103;-79
2022/11/02 01:47:23;;;;;;;3.25;0.60;;;11.30;99.90;;;;;;5044815;28;20045;-79
2022/11/02 01:49:56;;;;;;;2.50;0.63;;;11.30;99.90;;;;;;5036941;28;20045;-80
2022/11/02 01:52:31;;;;;;;1.60;0.82;;;11.30;99.90;;;;;;5049358;28;20040;-79
2022/11/02 01:55:15;;;;;;;1.33;0.60;;;11.20;99.90;;;;;;5020552;28;20052;-80
2022/11/02 01:57:46;;;;;;;0.95;0.50;;;11.10;99.90;;;;;;5046653;28;20124;-79
2022/11/02 02:00:14;;;;;;;1.45;0.55;;;11.00;99.90;;;;;;5033399;28;20128;-78
2022/11/02 02:02:59;;;;;;;1.90;1.15;;;11.00;99.90;;;;;;5046693;28;20045;-78
2022/11/02 02:05:25;;;;;;;0.73;0.50;;;10.90;99.90;;;;;;5051458;28;20045;-78
2022/11/02 02:07:52;;;;;;;2.40;0.75;;;10.80;99.90;;;;;;5030596;28;20553;-78
2022/11/02 02:10:18;;;;;;;0.50;0.47;;;10.70;99.90;;;;;;5009950;28;20037;-78
2022/11/02 02:12:44;;;;;;;0.20;0.20;;;10.60;99.90;;;;;;5042117;28;20040;-78
2022/11/02 02:15:11;;;;;;;0.77;0.52;;;10.60;99.90;;;;;;5053710;28;20045;-78
2022/11/02 02:18:20;;;;;;;0.77;0.52;;;10.50;99.90;;;;;;5040336;28;20577;-82
2022/11/02 02:21:17;;;;;;;5.38;0.80;;;10.40;99.90;;;;;;5013378;28;20394;-82
2022/11/02 02:23:49;;;;;;;1.70;0.60;;;10.40;99.90;;;;;;5005411;28;20039;-82
2022/11/02 02:26:52;;;;;;;1.40;0.80;;;10.30;99.90;;;;;;5045797;28;20130;-82
2022/11/02 02:29:26;;;;;;;0.65;0.52;;;10.30;99.90;;;;;;5030397;28;20041;-82
2022/11/02 02:32:00;;;;;;;1.48;0.77;;;10.40;99.90;;;;;;5053556;28;20037;-82
2022/11/02 02:34:29;;;;;;;2.35;0.80;;;10.30;99.90;;;;;;5041834;28;20041;-80
2022/11/02 02:37:06;;;;;;;1.73;1.15;;;10.30;99.90;;;;;;5037078;28;20041;-80
2022/11/02 02:39:40;;;;;;;2.33;1.05;;;10.30;99.90;;;;;;5032037;28;20364;-80
2022/11/02 02:42:12;;;;;;;1.20;0.80;;;10.30;99.90;;;;;;5003893;28;20041;-80
2022/11/02 02:44:43;;;;;;;3.88;2.30;;;10.40;99.90;;;;;;5016852;28;20053;-80
2022/11/02 02:47:20;;;;;;;2.40;0.68;;;10.40;99.90;;;;;;5031178;28;20049;-79
2022/11/02 02:50:04;;;;;;;2.63;0.60;;;10.50;99.90;;;;;;5048670;28;20041;-80
2022/11/02 02:52:33;;;;;;;0.80;0.63;;;10.50;99.90;;;;;;5033439;28;20052;-80
2022/11/02 02:55:01;;;;;;;0.32;0.30;;;10.50;99.90;;;;;;5041310;28;20051;-80
2022/11/02 02:57:30;;;;;;;4.03;0.98;;;10.50;99.90;;;;;;5051367;28;20037;-80
2022/11/02 02:59:56;;;;;;;9.30;0.90;;;10.50;99.90;;;;;;5020883;28;20038;-80
2022/11/02 03:02:30;;;;;;;1.77;0.30;;;10.50;99.90;;;;;;5033052;28;20041;-80
2022/11/02 03:04:56;;;;;;;2.30;0.50;;;10.50;99.90;;;;;;5049677;28;20048;-80
2022/11/02 03:07:33;;;;;;;0.98;0.30;;;10.40;99.90;;;;;;5044347;28;20124;-80
2022/11/02 03:10:01;;;;;;;2.45;0.60;;;10.50;99.90;;;;;;5045130;28;20049;-80
2022/11/02 03:12:53;;;;;;;5.88;0.82;;;10.50;99.90;;;;;;5042243;28;20491;-80
2022/11/02 03:15:21;;;;;;;0.13;0.10;;;10.60;99.90;;;;;;5036299;28;20053;-79
2022/11/02 03:18:17;;;;;;;1.00;0.35;;;10.60;99.90;;;;;;5047264;28;20040;-79
2022/11/02 03:20:48;;;;;;;3.97;0.68;;;10.60;99.90;;;;;;5049073;28;20037;-79
2022/11/02 03:23:21;;;;;;;3.85;0.50;;;10.60;99.90;;;;;;5021132;28;20041;-78
2022/11/02 03:26:12;;;;;;;1.38;0.52;;;10.60;99.90;;;;;;5052702;28;20044;-78
2022/11/02 03:28:58;;;;;;;4.90;0.63;;;10.50;99.90;;;;;;5048072;28;20103;-78
2022/11/02 03:31:32;;;;;;;3.08;0.52;;;10.40;99.90;;;;;;5033293;28;20038;-78
2022/11/02 03:34:28;;;;;;;2.65;0.65;;;10.40;99.90;;;;;;5016739;28;20099;-78
2022/11/02 03:37:26;;;;;;;0.65;0.40;;;10.30;99.90;;;;;;5065119;28;20049;-78
2022/11/02 03:40:23;;;;;;;6.07;1.00;;;10.30;99.90;;;;;;5013559;28;20053;-78
2022/11/02 03:42:51;;;;;;;1.17;0.50;;;10.20;99.90;;;;;;5054210;22;20047;-79
2022/11/02 03:45:24;;;;;;;2.05;0.60;;;10.20;99.90;;;;;;5090800;28;20490;-79
2022/11/02 03:47:57;;;;;;;4.97;0.80;;;10.20;99.90;;;;;;5092281;28;20489;-79
2022/11/02 03:50:23;;;;;;;5.75;1.67;;;10.20;99.90;;;;;;5075049;28;20032;-79
2022/11/02 03:52:57;;;;;;;9.57;1.27;;;10.20;99.90;;;;;;5092329;28;20090;-79
2022/11/02 03:55:35;;;;;;;2.33;0.70;;;10.10;99.90;;;;;;5091985;28;20043;-79
2022/11/02 03:58:01;;;;;;;2.13;0.82;;;10.20;99.90;;;;;;5075351;28;20516;-83
2022/11/02 04:00:32;;;;;;;1.02;0.45;;;10.10;99.90;;;;;;5091912;28;20036;-83
2022/11/02 04:03:01;;;;;;;4.13;0.73;;;10.10;99.90;;;;;;5092249;28;20109;-83
2022/11/02 04:05:33;;;;;;;5.22;0.88;;;10.10;99.90;;;;;;5091141;28;20040;-83
2022/11/02 04:16:14;;;;;;;2.83;1.02;;;10.40;99.90;;;;;;5091603;28;20043;-83
2022/11/02 04:21:25;;;;;;;7.00;0.80;;;10.60;99.90;;;;;;5091061;28;20044;-83
2022/11/02 04:26:35;;;;;;;4.57;1.23;;;10.70;99.90;;;;;;5084036;28;20059;-82
2022/11/02 04:29:01;;;;;;;4.82;0.90;;;10.60;99.90;;;;;;5089075;28;20032;-82
2022/11/02 04:31:27;;;;;;;3.30;1.05;;;10.70;99.90;;;;;;5078870;28;20036;-80
2022/11/02 04:33:52;;;;;;;5.07;1.05;;;10.60;99.90;;;;;;5096314;28;20044;-80
2022/11/02 04:36:18;;;;;;;2.92;0.55;;;10.60;99.90;;;;;;5059004;28;20482;-79
2022/11/02 04:38:44;;;;;;;4.50;0.77;;;10.60;99.90;;;;;;5087972;28;20071;-80
2022/11/02 04:44:00;;;;;;;5.40;1.20;;;10.60;99.90;;;;;;5095344;28;20060;-79
2022/11/02 04:46:28;;;;;;;3.33;0.73;;;10.60;99.90;;;;;;5078560;28;20043;-80
2022/11/02 04:48:54;;;;;;;2.88;1.00;;;10.50;99.90;;;;;;5095907;28;20044;-78
2022/11/02 04:51:22;;;;;;;2.78;0.90;;;10.50;99.90;;;;;;5095400;28;20058;-78
2022/11/02 04:53:50;;;;;;;5.80;2.15;;;10.60;99.90;;;;;;5094862;28;20032;-78
2022/11/02 04:56:16;;;;;;;7.88;0.95;;;10.60;99.90;;;;;;5095208;28;20044;-78
2022/11/02 04:58:41;;;;;;;3.00;1.00;;;10.60;99.90;;;;;;5095683;28;20043;-78
2022/11/02 05:01:12;;;;;;;1.65;0.70;;;10.60;99.90;;;;;;5067049;28;20128;-78
2022/11/02 05:03:38;;;;;;;5.45;1.00;;;10.60;99.90;;;;;;5078146;28;20180;-79
2022/11/02 05:06:04;;;;;;;3.65;0.93;;;10.60;99.90;;;;;;5095060;28;20118;-80
2022/11/02 05:08:29;;;;;;;2.75;0.90;;;10.60;99.90;;;;;;5061476;28;20071;-79
2022/11/02 05:10:56;;;;;;;3.30;1.02;;;10.50;99.90;;;;;;5047138;28;20465;-79
2022/11/02 05:13:24;;;;;;;4.85;1.48;;;10.50;99.90;;;;;;5076825;28;20044;-79
2022/11/02 05:15:49;;;;;;;7.07;1.10;;;10.40;99.90;;;;;;5095093;28;20051;-79
2022/11/02 05:18:15;;;;;;;3.42;0.75;;;10.40;99.90;;;;;;5094775;28;20032;-80
2022/11/02 05:20:41;;;;;;;4.00;0.90;;;10.30;99.90;;;;;;5094846;28;20603;-82
2022/11/02 05:23:07;;;;;;;5.50;0.70;;;10.30;99.90;;;;;;5077658;28;20482;-82
2022/11/02 05:25:33;;;;;;;7.45;1.48;;;10.40;99.90;;;;;;5077873;28;20040;-82
2022/11/02 05:27:59;;;;;;;3.40;1.25;;;10.30;99.90;;;;;;5077840;28;20089;-83
2022/11/02 05:30:24;;;;;;;2.05;0.85;;;10.30;99.90;;;;;;5095065;28;20127;-83
2022/11/02 05:32:54;;;;;;;6.53;3.03;;;10.40;99.90;;;;;;5077231;28;20036;-83
2022/11/02 05:35:20;;;;;;;4.50;1.23;;;10.40;99.90;;;;;;5077856;28;20036;-82
2022/11/02 05:37:46;;;;;;;3.33;1.13;;;10.50;99.90;;;;;;5094861;28;20047;-79
2022/11/02 05:40:12;;;;;;;5.00;1.20;;;10.60;99.90;;;;;;5058965;28;20040;-79
2022/11/02 05:42:38;;;;;;;6.03;1.17;;;10.60;99.90;;;;;;5078142;28;20131;-79
2022/11/02 05:45:04;;;;;;;3.42;0.93;;;10.60;99.90;;;;;;5094445;28;20135;-79
2022/11/02 05:47:30;;;;;;;4.57;0.88;;;10.50;99.90;;;;;;5094567;28;20050;-79
2022/11/02 05:49:56;;;;;;;2.40;0.65;;;10.50;99.90;;;;;;5095618;28;20052;-79
2022/11/02 05:52:21;;;;;;;3.65;1.33;;;10.50;99.90;;;;;;5094597;28;20054;-79
2022/11/02 05:54:47;;;;;;;5.32;0.90;;;10.60;99.90;;;;;;5094294;28;20044;-79
2022/11/02 05:57:13;;;;;;;5.00;0.93;;;10.60;99.90;;;;;;5060255;28;20385;-79
2022/11/02 05:59:38;;;;;;;3.83;0.98;;;10.80;99.90;;;;;;5047854;28;20037;-79
2022/11/02 06:02:04;;;;;;;1.95;0.50;;;10.70;99.90;;;;;;5064500;28;20180;-79
2022/11/02 06:04:30;;;;;;;3.20;1.08;;;10.70;99.90;;;;;;5094255;28;20036;-79
2022/11/02 06:06:55;;;;;;;3.72;0.90;;;10.80;99.90;;;;;;5094248;28;20450;-79
2022/11/02 06:09:21;;;;;;;9.82;1.67;;;10.80;99.90;;;;;;5076713;28;20032;-79
2022/11/02 06:11:47;;;;;;;3.00;1.00;;;10.80;99.90;;;;;;5093804;28;20485;-83
2022/11/02 06:14:12;;;;;;;8.07;1.48;;;11.00;99.90;;;;;;5060475;28;20047;-82
2022/11/02 06:16:38;;;;;;;3.10;0.75;;;10.80;99.90;;;;;;5077232;28;20111;-82
2022/11/02 06:19:04;;;;;;;2.53;0.60;;;10.90;99.90;;;;;;5089730;28;20470;-82
2022/11/02 06:21:29;;;;;;;5.05;1.08;;;10.90;99.90;;;;;;5091411;28;20044;-82
2022/11/02 06:23:57;;;;;;;3.30;1.20;;;10.90;99.90;;;;;;5073325;28;20082;-82
2022/11/02 06:26:23;;;;;;;3.63;1.00;;;10.80;99.90;;;;;;5076853;28;20040;-82
2022/11/02 06:28:49;;;;;;;4.15;0.85;;;10.80;99.90;;;;;;5076874;28;20473;-80
2022/11/02 06:31:16;;;;;;;10.30;1.20;;;10.80;99.90;;;;;;5093194;28;20093;-80
2022/11/02 06:33:43;;;;;;;2.47;1.23;;;10.80;99.90;;;;;;5093568;28;20048;-80
2022/11/02 06:36:09;;;;;;;2.88;1.00;;;10.80;99.90;;;;;;5076296;28;20087;-79
2022/11/02 06:38:35;;;;;;;6.22;1.48;;;10.80;99.90;;;;;;5093370;28;20078;-80
2022/11/02 06:41:04;;;;;;;4.85;1.27;;;10.80;99.90;;;;;;5093170;28;20409;-80
2022/11/02 06:43:30;;;;;;;2.15;0.80;;;10.70;99.90;;;;;;5093160;28;20506;-80
2022/11/02 06:45:57;;;;;;;1.45;0.60;;;10.70;99.90;;;;;;5076316;28;20157;-79
2022/11/02 06:48:23;;;;;;;4.88;0.90;;;10.80;99.90;;;;;;5092563;28;20474;-79
2022/11/02 06:50:49;;;;;;;6.00;1.60;;;10.80;99.90;;;;;;5075680;28;20040;-79
2022/11/02 06:53:14;;;;;;;3.50;1.25;;;10.80;99.90;;;;;;5075767;28;20070;-79
2022/11/02 06:55:40;;;;;;;4.07;1.20;;;10.90;99.90;;;;;;5074559;28;20414;-79
2022/11/02 06:58:06;;;;;;;3.50;1.13;;;11.00;99.90;;;;;;5076442;28;20046;-79
2022/11/02 07:00:32;;;;;;;2.38;0.52;;;11.00;99.90;;;;;;5091801;28;20036;-79
2022/11/02 07:03:02;;;;;;;6.72;0.98;;;11.00;99.90;;;;;;5076199;28;20390;-79
2022/11/02 07:05:29;;;;;;;2.30;0.80;;;10.90;99.90;;;;;;5075970;28;20040;-80
2022/11/02 07:07:55;;;;;;;5.43;0.65;;;10.90;99.90;;;;;;5092701;28;20043;-80
2022/11/02 07:10:21;;;;;;;2.35;0.98;;;10.90;99.90;;;;;;5092381;28;20094;-80
2022/11/02 07:12:46;;;;;;;3.33;0.52;;;10.90;99.90;;;;;;5092489;28;20161;-80
2022/11/02 07:15:12;;;;;;;2.78;0.88;;;11.00;99.90;;;;;;5075109;28;20028;-80
2022/11/02 07:17:39;;;;;;;3.15;0.88;;;10.90;99.90;;;;;;5092499;28;20036;-77
2022/11/02 07:20:06;;;;;;;3.42;1.25;;;10.90;99.90;;;;;;5092382;28;20040;-77
2022/11/02 07:22:31;;;;;;;1.70;0.82;;;10.90;99.90;;;;;;5092454;28;20477;-77
2022/11/02 07:24:57;;;;;;;4.20;0.75;;;10.80;99.90;;;;;;5092916;28;20051;-78
2022/11/02 07:27:23;;;;;;;7.80;0.80;;;10.80;99.90;;;;;;5076111;28;20182;-78
2022/11/02 07:29:49;;;;;;;3.08;0.60;;;10.80;99.90;;;;;;5075746;28;20044;-78
2022/11/02 07:32:14;;;;;;;3.30;0.60;;;10.80;99.90;;;;;;5091303;28;20093;-78
2022/11/02 07:34:40;;;;;;;3.40;0.68;;;10.90;99.90;;;;;;5076091;28;20044;-78
2022/11/02 07:37:06;;;;;;;4.40;0.95;;;10.80;99.90;;;;;;5092014;28;20048;-78
2022/11/02 07:39:31;;;;;;;1.15;0.85;;;10.80;99.90;;;;;;5075735;28;20603;-77
2022/11/02 07:41:57;;;;;;;1.98;0.63;;;10.70;99.90;;;;;;5075488;28;20048;-77
2022/11/02 07:44:23;;;;;;;2.50;0.60;;;10.80;99.90;;;;;;5092456;28;20056;-78
2022/11/02 07:46:48;;;;;;;5.30;1.08;;;10.70;99.90;;;;;;5092393;28;20113;-78
2022/11/02 07:49:14;;;;;;;5.05;1.20;;;10.70;99.90;;;;;;5075121;28;20039;-77
2022/11/02 07:51:40;;;;;;;1.25;0.47;;;10.70;99.90;;;;;;5092050;28;20036;-79
2022/11/02 07:54:06;;;;;;;1.05;0.40;;;10.80;99.90;;;;;;5092511;28;20036;-79
2022/11/02 07:56:31;;;;;;;3.25;1.00;;;11.30;99.90;;;;;;5075222;28;20409;-79
2022/11/02 07:58:57;;;;;;;2.60;0.80;;;11.60;99.90;;;;;;5092356;28;20065;-79
2022/11/02 08:01:23;;;;;;;9.65;2.33;;;11.80;99.90;;;;;;5074762;28;20040;-79
2022/11/02 08:03:49;;;;;;;5.25;1.10;;;11.80;99.90;;;;;;5074976;28;20055;-80
2022/11/02 08:06:14;;;;;;;6.88;0.88;;;11.70;99.90;;;;;;5075219;28;20040;-79
2022/11/02 08:08:40;;;;;;;6.85;0.88;;;11.70;99.90;;;;;;5088005;28;20063;-79
2022/11/02 08:11:07;;;;;;;4.75;1.00;;;11.60;99.90;;;;;;5091669;28;20036;-80
2022/11/02 08:13:36;;;;;;;3.25;0.93;;;11.50;99.90;;;;;;5075066;28;20044;-80
2022/11/02 08:16:01;;;;;;;4.85;0.75;;;11.40;99.90;;;;;;5087555;28;20043;-80
2022/11/02 08:18:28;;;;;;;1.02;0.57;;;11.40;99.90;;;;;;5081220;28;20050;-80
2022/11/02 08:20:55;;;;;;;6.57;0.88;;;11.60;99.90;;;;;;5071551;28;20043;-80
2022/11/02 08:23:21;;;;;;;2.70;0.90;;;11.80;99.90;;;;;;5074349;28;20109;-80
2022/11/02 08:25:49;;;;;;;3.65;0.65;;;11.80;99.90;;;;;;5087220;28;20052;-80
2022/11/02 08:28:18;;;;;;;3.55;0.47;;;11.90;99.90;;;;;;5092361;28;20043;-80
2022/11/02 08:30:44;;;;;;;4.32;0.70;;;11.90;99.90;;;;;;5092384;28;20051;-80
2022/11/02 08:33:14;;;;;;;5.82;0.93;;;12.20;99.90;;;;;;5060483;28;20040;-80
2022/11/02 08:35:40;;;;;;;3.53;0.82;;;12.70;99.90;;;;;;5074288;28;20116;-80
2022/11/02 08:38:06;;;;;;;2.50;0.98;;;13.70;99.90;;;;;;5091802;28;20048;-80
2022/11/02 08:40:33;;;;;;;1.88;0.95;;;14.70;99.90;;;;;;5092392;28;20043;-80
2022/11/02 08:43:03;;;;;;;2.13;0.70;;;15.20;99.90;;;;;;5091182;28;20086;-80
2022/11/02 08:45:30;;;;;;;4.32;1.45;;;15.80;99.90;;;;;;5075224;28;20040;-80
2022/11/02 08:47:55;;;;;;;0.93;0.68;;;15.90;99.90;;;;;;5091205;28;20036;-80
2022/11/02 08:50:22;;;;;;;2.40;0.80;;;15.60;99.90;;;;;;5091459;28;20184;-80
2022/11/02 08:52:48;;;;;;;3.03;1.10;;;;;;;;;;5090749;28;20486;-80
2022/11/02 08:55:14;;;;;;;2.08;0.70;;;15.90;99.90;;;;;;5089858;28;20036;-80
2022/11/02 08:57:51;;;;;;;7.57;1.02;;;16.20;99.90;;;;;;5091381;28;20097;-78
2022/11/02 09:00:19;;;;;;;3.03;0.80;;;16.60;99.90;;;;;;5074535;28;20036;-78
2022/11/02 09:03:06;;;;;;;3.85;1.00;;;17.00;99.90;;;;;;5091697;28;20079;-78
2022/11/02 09:05:35;;;;;;;5.78;1.45;;;17.80;99.90;;;;;;5065006;28;20044;-78
2022/11/02 09:08:03;;;;;;;1.27;0.85;;;18.60;99.90;;;;;;5074195;28;20047;-78
2022/11/02 09:10:30;;;;;;;3.80;0.88;;;18.90;99.90;;;;;;5091625;28;20044;-78
2022/11/02 09:12:58;;;;;;;4.18;1.13;;;18.90;99.90;;;;;;5087511;28;20044;-78
2022/11/02 09:15:24;;;;;;;3.13;0.88;;;18.90;99.90;;;;;;5093328;28;20549;-78
2022/11/02 09:17:50;;;;;;;1.52;0.60;;;18.90;99.90;;;;;;5078711;28;20122;-78
2022/11/02 09:20:17;;;;;;;3.90;0.88;;;18.50;99.90;;;;;;5095680;28;20126;-78
2022/11/02 09:22:43;;;;;;;4.32;0.88;;;17.90;99.90;;;;;;5095024;28;20036;-78
2022/11/02 09:25:09;;;;;;;3.83;1.27;;;17.40;99.90;;;;;;5094606;28;20478;-78
2022/11/02 09:27:35;;;;;;;4.72;1.13;;;16.80;99.90;;;;;;5094712;28;20054;-78
2022/11/02 09:30:02;;;;;;;2.83;1.08;;;16.30;99.90;;;;;;5095221;28;20044;-79
2022/11/02 09:32:32;;;;;;;2.38;0.80;;;15.60;99.90;;;;;;5094379;28;20044;-79
2022/11/02 09:35:07;;;;;;;3.60;1.00;;;15.10;99.90;;;;;;5094782;28;20359;-79
2022/11/02 09:37:33;;;;;;;8.57;1.52;;;14.90;99.90;;;;;;5094551;28;20071;-79
2022/11/02 09:39:59;;;;;;;4.90;1.17;;;14.70;99.90;;;;;;5094589;28;20051;-81
2022/11/02 09:42:42;;;;;;;6.35;0.95;;;14.60;99.90;;;;;;5078304;28;20044;-80
2022/11/02 09:45:15;;;;;;;7.97;2.05;;;14.50;99.90;;;;;;5078001;28;20052;-80
2022/11/02 09:47:55;;;;;;;2.92;0.80;;;14.60;99.90;;;;;;5077888;28;20036;-80
2022/11/02 09:50:37;;;;;;;3.30;0.70;;;15.20;99.90;;;;;;5094645;28;20036;-80
2022/11/02 09:53:07;;;;;;;5.75;1.23;;;15.40;99.90;;;;;;5076301;28;20123;-81
2022/11/02 09:55:37;;;;;;;7.40;1.25;;;16.30;99.90;;;;;;5094825;28;20435;-80
2022/11/02 09:58:11;;;;;;;5.18;1.33;;;16.90;99.90;;;;;;5079077;22;20045;-82
2022/11/02 10:00:40;;;;;;;2.63;1.20;;;17.20;99.90;;;;;;5054445;28;20491;-82
2022/11/02 10:03:26;;;;;;;2.85;1.17;;;17.50;99.90;;;;;;5037906;28;20081;-82
2022/11/02 10:06:19;;;;;;;4.07;0.80;;;17.90;99.90;;;;;;5054675;28;20398;-86
2022/11/02 10:08:50;;;;;;;4.03;0.80;;;17.90;99.90;;;;;;5043725;28;20439;-86
2022/11/02 10:11:35;;;;;;;3.40;0.45;;;18.20;99.90;;;;;;5017841;28;20166;-86
2022/11/02 10:14:01;;;;;;;6.00;1.30;;;18.80;99.90;;;;;;5018069;28;20053;-86
2022/11/02 10:16:34;;;;;;;4.90;1.50;;;19.30;99.90;;;;;;5034072;28;20400;-86
2022/11/02 10:19:03;;;;;;;4.28;1.42;;;19.80;98.90;;;;;;5034403;28;20047;-86
2022/11/02 10:21:32;;;;;;;4.45;1.52;;;20.40;96.50;;;;;;5034046;28;20046;-82
2022/11/02 10:24:05;;;;;;;3.13;0.98;;;20.40;98.60;;;;;;5034032;28;20042;-82
2022/11/02 10:26:36;;;;;;;4.07;0.77;;;20.20;94.70;;;;;;5033723;28;20034;-82
2022/11/02 10:29:27;;;;;;;3.55;1.15;;;20.20;96.10;;;;;;5038900;28;20036;-82
2022/11/02 10:31:53;;;;;;;2.40;0.88;;;20.90;94.00;;;;;;5046432;28;20045;-82
2022/11/02 10:34:27;;;;;;;4.10;1.40;;;20.90;92.90;;;;;;5053986;28;20094;-82
2022/11/02 10:37:08;;;;;;;3.35;0.98;;;20.90;93.10;;;;;;5037025;28;20045;-82
2022/11/02 10:39:42;;;;;;;1.15;0.50;;;20.80;91.10;;;;;;5035245;28;20483;-82
2022/11/02 10:42:43;;;;;;;4.03;1.38;;;20.60;92.40;;;;;;5053898;28;20056;-82
2022/11/02 10:45:32;;;;;;;7.30;1.13;;;20.80;94.10;;;;;;5053319;28;20124;-82
2022/11/02 10:47:58;;;;;;;3.95;1.35;;;20.70;92.90;;;;;;5053450;28;20037;-82
2022/11/02 10:50:52;;;;;;;3.40;1.00;;;20.30;93.40;;;;;;5050739;28;20044;-82
2022/11/02 10:53:20;;;;;;;3.08;0.85;;;19.50;93.90;;;;;;5036673;28;20037;-82
2022/11/02 10:56:04;;;;;;;4.63;0.98;;;19.10;95.50;;;;;;5037004;28;20049;-81
2022/11/02 10:58:32;;;;;;;1.52;0.50;;;19.20;94.60;;;;;;5036461;28;20060;-82
2022/11/02 11:01:06;;;;;;;0.60;0.60;;;19.40;96.00;;;;;;5042904;28;20053;-82
2022/11/02 11:03:32;;;;;;;4.57;0.90;;;19.50;94.70;;;;;;5040247;28;20124;-82
2022/11/02 11:06:01;;;;;;;2.60;1.00;;;19.80;94.70;;;;;;5033063;28;20081;-82
2022/11/02 11:08:38;;;;;;;3.75;1.02;;;20.30;93.10;;;;;;5033486;28;20063;-82
2022/11/02 11:11:20;;;;;;;2.38;1.08;;;20.10;94.50;;;;;;5033248;28;20041;-82
2022/11/02 11:13:53;;;;;;;2.15;0.63;;;20.80;94.10;;;;;;5033186;28;20041;-82
2022/11/02 11:16:37;;;;;;;2.78;0.50;;;21.10;93.60;;;;;;5032993;28;20042;-83
2022/11/02 11:19:06;;;;;;;4.10;0.88;;;21.60;92.30;;;;;;5016678;28;20041;-83
2022/11/02 11:21:37;;;;;;;3.92;1.23;;;21.80;91.30;;;;;;5041260;28;20040;-82
2022/11/02 11:24:23;;;;;;;3.00;0.73;;;21.20;91.60;;;;;;5053085;28;20438;-82
2022/11/02 11:27:10;;;;;;;1.27;0.70;;;20.20;91.80;;;;;;5052702;28;20039;-82
2022/11/02 11:29:39;;;;;;;5.18;1.05;;;19.20;92.00;;;;;;5052680;28;20053;-82
2022/11/02 11:32:14;;;;;;;4.22;0.95;;;18.20;92.80;;;;;;5042782;28;20037;-82
2022/11/02 11:34:42;;;;;;;5.13;0.97;;;17.70;93.50;;;;;;5033048;28;20042;-82
2022/11/02 11:37:14;;;;;;;2.08;1.00;;;17.30;94.80;;;;;;5015923;28;20101;-82
2022/11/02 11:39:43;;;;;;;2.13;0.75;;;16.90;95.10;;;;;;5033843;28;20095;-82
2022/11/02 11:42:24;;;;;;;2.85;0.75;;;16.50;96.50;;;;;;5031975;28;20483;-82
2022/11/02 11:45:16;;;;;;;4.15;0.95;;;16.30;96.60;;;;;;5050347;28;20059;-82
2022/11/02 11:47:42;;;;;;;3.03;0.90;;;15.90;97.10;;;;;;5052396;28;20426;-82
2022/11/02 11:50:15;;;;;;;2.47;0.73;;;15.60;97.50;;;;;;5052523;28;20385;-82
2022/11/02 11:52:41;;;;;;;1.52;0.65;;;15.40;98.70;;;;;;5050617;28;20104;-82
2022/11/02 11:55:23;;;;;;;6.72;1.02;;;15.40;99.70;;;;;;5019306;28;20079;-82
2022/11/02 11:58:20;;;;;;;2.60;0.75;;;15.40;99.80;;;;;;5035918;28;20403;-82
2022/11/02 12:01:03;;;;;;;6.10;1.23;;;15.40;99.90;;;;;;5035961;28;20083;-82
2022/11/02 12:03:28;;;;;;;2.25;0.50;;;15.50;99.90;;;;;;5034839;28;20049;-82
2022/11/02 12:05:54;;;;;;;3.65;0.75;;;15.50;99.90;;;;;;5052215;28;20107;-82
2022/11/02 12:08:30;;;;;;;4.15;0.70;;;15.50;99.90;;;;;;5035612;28;20132;-82
2022/11/02 12:11:05;;;;;;;3.35;0.93;;;15.60;99.90;;;;;;5051981;28;20052;-82
2022/11/02 12:13:52;;;;;;;3.97;1.20;;;15.70;99.90;;;;;;5049608;28;20040;-82
2022/11/02 12:16:43;;;;;;;3.65;0.70;;;15.80;99.90;;;;;;5015778;28;20041;-82
2022/11/02 12:19:36;;;;;;;7.47;1.02;;;15.80;99.80;;;;;;5016302;28;20048;-82
2022/11/02 12:22:17;;;;;;;3.50;0.47;;;15.70;99.90;;;;;;5016380;28;20049;-82
2022/11/02 12:25:16;;;;;;;1.70;0.55;;;15.60;99.90;;;;;;5031780;28;20077;-81
2022/11/02 12:27:56;;;;;;;1.52;0.90;;;15.60;99.90;;;;;;5032152;28;20492;-81
2022/11/02 12:30:46;;;;;;;3.75;0.80;;;15.30;99.90;;;;;;5039876;28;20033;-81
2022/11/02 12:33:42;;;;;;;1.77;1.00;;;15.20;99.90;;;;;;5055235;28;20028;-81
2022/11/02 12:36:42;;;;;;;2.13;0.60;;;15.20;99.90;;;;;;5058540;28;20124;-82
2022/11/02 12:39:14;;;;;;;3.67;0.80;;;15.10;99.90;;;;;;5032288;28;20048;-81
2022/11/02 12:41:51;;;;;;;5.93;0.88;;;15.10;99.90;;;;;;5015452;28;20104;-82
2022/11/02 12:44:37;;;;;;;3.55;1.05;;;15.20;99.90;;;;;;5034966;28;20575;-82
2022/11/02 12:47:22;;;;;;;1.73;0.85;;;15.20;99.90;;;;;;5046063;28;20044;-82
2022/11/02 12:50:07;;;;;;;3.10;1.02;;;15.30;99.90;;;;;;5036949;28;20115;-82
2022/11/02 12:53:03;;;;;;;5.00;0.80;;;15.40;99.90;;;;;;5038767;28;20033;-82
2022/11/02 12:55:35;;;;;;;3.63;1.00;;;15.40;99.90;;;;;;5056265;28;20386;-82
2022/11/02 12:58:05;;;;;;;4.20;0.90;;;15.40;99.90;;;;;;5038244;28;20483;-82
2022/11/02 13:00:36;;;;;;;4.22;1.15;;;15.30;99.90;;;;;;5055492;28;20395;-82
2022/11/02 13:03:18;;;;;;;5.03;0.98;;;15.20;99.90;;;;;;5055704;28;20072;-82
2022/11/02 13:05:56;;;;;;;4.22;0.88;;;15.10;99.90;;;;;;5055587;28;20174;-82
2022/11/02 13:08:48;;;;;;;3.75;1.20;;;15.10;99.90;;;;;;5053899;28;20495;-82
2022/11/02 13:11:32;;;;;;;5.15;0.68;;;15.20;99.90;;;;;;5039445;28;20044;-82
2022/11/02 13:14:01;;;;;;;10.13;1.13;;;15.20;99.90;;;;;;5039161;28;20099;-82
2022/11/02 13:16:45;;;;;;;1.95;0.75;;;15.60;99.90;;;;;;5054363;28;20045;-82
2022/11/02 13:19:19;;;;;;;3.42;1.05;;;15.70;99.90;;;;;;5039170;28;20124;-82
2022/11/02 13:21:52;;;;;;;3.88;0.75;;;15.70;99.90;;;;;;5055754;28;20053;-82
2022/11/02 13:24:29;;;;;;;2.88;0.70;;;15.70;99.90;;;;;;5055597;28;20048;-82
2022/11/02 13:27:01;;;;;;;3.55;0.77;;;15.80;99.90;;;;;;5042119;28;20441;-82